sensor_id;sensor_type;location;lat;lon;timestamp;pressure;altitude;pressure_sealevel;temperature;humidity
60611;BME280;46439;51.164;13.572;2023-03-26T00:02:26;98994.55;;;8.83;71.73
60611;BME280;46439;51.164;13.572;2023-03-26T00:04:56;98998.89;;;8.82;71.57
60611;BME280;46439;51.164;13.572;2023-03-26T00:07:25;99001.83;;;8.83;71.75
60611;BME280;46439;51.164;13.572;2023-03-26T00:09:55;99001.49;;;8.83;71.64
60611;BME280;46439;51.164;13.572;2023-03-26T00:12:25;99001.80;;;8.85;71.79
60611;BME280;46439;51.164;13.572;2023-03-26T00:14:53;99007.07;;;8.86;71.87
60611;BME280;46439;51.164;13.572;2023-03-26T00:17:22;99010.27;;;8.86;71.95
60611;BME280;46439;51.164;13.572;2023-03-26T00:19:51;99014.60;;;8.86;71.91
60611;BME280;46439;51.164;13.572;2023-03-26T00:22:21;99013.74;;;8.85;72.08
60611;BME280;46439;51.164;13.572;2023-03-26T00:24:58;99013.11;;;8.86;72.08
60611;BME280;46439;51.164;13.572;2023-03-26T00:27:46;99020.49;;;8.86;71.95
60611;BME280;46439;51.164;13.572;2023-03-26T00:30:17;99017.65;;;8.88;72.11
60611;BME280;46439;51.164;13.572;2023-03-26T00:33:07;99016.89;;;8.89;72.04
60611;BME280;46439;51.164;13.572;2023-03-26T00:35:40;99011.98;;;8.88;72.14
60611;BME280;46439;51.164;13.572;2023-03-26T00:38:10;99009.70;;;8.88;72.04
60611;BME280;46439;51.164;13.572;2023-03-26T00:40:39;99014.73;;;8.86;71.96
60611;BME280;46439;51.164;13.572;2023-03-26T00:43:11;99014.56;;;8.84;72.17
60611;BME280;46439;51.164;13.572;2023-03-26T00:45:47;99017.04;;;8.85;72.21
60611;BME280;46439;51.164;13.572;2023-03-26T00:48:21;99014.85;;;8.85;72.20
60611;BME280;46439;51.164;13.572;2023-03-26T00:50:50;99017.08;;;8.84;72.25
60611;BME280;46439;51.164;13.572;2023-03-26T00:53:19;99019.48;;;8.84;72.24
60611;BME280;46439;51.164;13.572;2023-03-26T00:55:48;99014.77;;;8.86;72.34
60611;BME280;46439;51.164;13.572;2023-03-26T00:58:16;99013.10;;;8.88;72.41
60611;BME280;46439;51.164;13.572;2023-03-26T01:00:47;99008.46;;;8.88;72.33
60611;BME280;46439;51.164;13.572;2023-03-26T01:03:18;99008.56;;;8.90;72.53
60611;BME280;46439;51.164;13.572;2023-03-26T01:05:50;99001.69;;;8.90;72.57
60611;BME280;46439;51.164;13.572;2023-03-26T01:08:27;99007.58;;;8.92;72.48
60611;BME280;46439;51.164;13.572;2023-03-26T01:10:59;99008.82;;;8.91;72.46
60611;BME280;46439;51.164;13.572;2023-03-26T01:13:35;99014.74;;;8.88;72.55
60611;BME280;46439;51.164;13.572;2023-03-26T01:16:07;99020.05;;;8.83;72.40
60611;BME280;46439;51.164;13.572;2023-03-26T01:18:40;99023.17;;;8.77;72.42
60611;BME280;46439;51.164;13.572;2023-03-26T01:21:09;99025.29;;;8.71;72.25
60611;BME280;46439;51.164;13.572;2023-03-26T01:23:45;99023.91;;;8.63;72.13
60611;BME280;46439;51.164;13.572;2023-03-26T01:26:29;99020.56;;;8.55;72.01
60611;BME280;46439;51.164;13.572;2023-03-26T01:29:03;99018.05;;;8.46;72.22
60611;BME280;46439;51.164;13.572;2023-03-26T01:31:38;99016.97;;;8.40;72.14
60611;BME280;46439;51.164;13.572;2023-03-26T01:34:16;99017.50;;;8.34;72.11
60611;BME280;46439;51.164;13.572;2023-03-26T01:36:52;99017.66;;;8.30;72.23
60611;BME280;46439;51.164;13.572;2023-03-26T01:39:26;99019.81;;;8.28;72.35
60611;BME280;46439;51.164;13.572;2023-03-26T01:42:02;99011.27;;;8.26;72.43
60611;BME280;46439;51.164;13.572;2023-03-26T01:44:39;99010.91;;;8.23;72.57
60611;BME280;46439;51.164;13.572;2023-03-26T01:47:13;99011.35;;;8.23;72.35
60611;BME280;46439;51.164;13.572;2023-03-26T01:49:43;99011.30;;;8.21;72.66
60611;BME280;46439;51.164;13.572;2023-03-26T01:52:16;99016.56;;;8.22;72.69
60611;BME280;46439;51.164;13.572;2023-03-26T01:54:46;99012.88;;;8.22;72.88
60611;BME280;46439;51.164;13.572;2023-03-26T01:57:22;99009.41;;;8.19;72.73
60611;BME280;46439;51.164;13.572;2023-03-26T02:00:05;99008.61;;;8.19;72.79
60611;BME280;46439;51.164;13.572;2023-03-26T02:02:44;99005.96;;;8.19;72.87
60611;BME280;46439;51.164;13.572;2023-03-26T02:05:23;99001.03;;;8.18;72.88
60611;BME280;46439;51.164;13.572;2023-03-26T02:07:58;98997.24;;;8.17;73.18
60611;BME280;46439;51.164;13.572;2023-03-26T02:10:32;98997.15;;;8.16;73.10
60611;BME280;46439;51.164;13.572;2023-03-26T02:13:03;99001.98;;;8.14;73.03
60611;BME280;46439;51.164;13.572;2023-03-26T02:15:33;99000.70;;;8.12;73.04
60611;BME280;46439;51.164;13.572;2023-03-26T02:18:02;98999.23;;;8.10;73.18
60611;BME280;46439;51.164;13.572;2023-03-26T02:20:31;99000.41;;;8.11;72.96
60611;BME280;46439;51.164;13.572;2023-03-26T02:22:59;98994.23;;;8.12;73.12
60611;BME280;46439;51.164;13.572;2023-03-26T02:25:28;98993.20;;;8.13;73.27
60611;BME280;46439;51.164;13.572;2023-03-26T02:27:56;98993.19;;;8.13;73.22
60611;BME280;46439;51.164;13.572;2023-03-26T02:30:26;98992.63;;;8.12;73.27
60611;BME280;46439;51.164;13.572;2023-03-26T02:32:56;98991.39;;;8.12;73.27
60611;BME280;46439;51.164;13.572;2023-03-26T02:35:26;98996.14;;;8.11;73.32
60611;BME280;46439;51.164;13.572;2023-03-26T02:37:54;98994.47;;;8.10;73.36
60611;BME280;46439;51.164;13.572;2023-03-26T02:40:23;98994.36;;;8.11;73.48
60611;BME280;46439;51.164;13.572;2023-03-26T02:42:52;98998.61;;;8.08;73.48
60611;BME280;46439;51.164;13.572;2023-03-26T02:45:20;98993.65;;;8.07;73.50
60611;BME280;46439;51.164;13.572;2023-03-26T02:47:49;99001.58;;;8.06;73.60
60611;BME280;46439;51.164;13.572;2023-03-26T02:50:18;99002.95;;;8.06;73.56
60611;BME280;46439;51.164;13.572;2023-03-26T02:52:46;98999.42;;;8.06;73.69
60611;BME280;46439;51.164;13.572;2023-03-26T02:55:17;99000.08;;;8.05;73.63
60611;BME280;46439;51.164;13.572;2023-03-26T02:57:45;98999.27;;;8.03;73.84
60611;BME280;46439;51.164;13.572;2023-03-26T03:00:15;99000.40;;;8.02;73.81
60611;BME280;46439;51.164;13.572;2023-03-26T03:02:44;98999.13;;;8.01;73.81
60611;BME280;46439;51.164;13.572;2023-03-26T03:05:15;98998.09;;;7.99;73.70
60611;BME280;46439;51.164;13.572;2023-03-26T03:07:45;98995.15;;;7.98;73.94
60611;BME280;46439;51.164;13.572;2023-03-26T03:10:14;98995.96;;;7.97;74.03
60611;BME280;46439;51.164;13.572;2023-03-26T03:12:43;98993.20;;;7.96;73.88
60611;BME280;46439;51.164;13.572;2023-03-26T03:15:12;98995.69;;;7.95;73.84
60611;BME280;46439;51.164;13.572;2023-03-26T03:17:41;98996.14;;;7.93;73.88
60611;BME280;46439;51.164;13.572;2023-03-26T03:20:10;98991.68;;;7.93;74.08
60611;BME280;46439;51.164;13.572;2023-03-26T03:22:39;98989.84;;;7.92;74.14
60611;BME280;46439;51.164;13.572;2023-03-26T03:25:09;98993.20;;;7.92;74.01
60611;BME280;46439;51.164;13.572;2023-03-26T03:27:42;98988.84;;;7.91;74.25
60611;BME280;46439;51.164;13.572;2023-03-26T03:30:13;98988.00;;;7.91;74.16
60611;BME280;46439;51.164;13.572;2023-03-26T03:32:42;98989.54;;;7.91;74.20
60611;BME280;46439;51.164;13.572;2023-03-26T03:35:11;98987.80;;;7.94;74.37
60611;BME280;46439;51.164;13.572;2023-03-26T03:37:40;98989.58;;;7.94;74.31
60611;BME280;46439;51.164;13.572;2023-03-26T03:40:10;98991.97;;;7.94;74.28
60611;BME280;46439;51.164;13.572;2023-03-26T03:42:38;98990.73;;;7.90;74.33
60611;BME280;46439;51.164;13.572;2023-03-26T03:45:09;98988.33;;;7.89;74.39
60611;BME280;46439;51.164;13.572;2023-03-26T03:47:38;98981.19;;;7.87;74.36
60611;BME280;46439;51.164;13.572;2023-03-26T03:50:09;98983.94;;;7.88;74.53
60611;BME280;46439;51.164;13.572;2023-03-26T03:52:37;98983.14;;;7.87;74.59
60611;BME280;46439;51.164;13.572;2023-03-26T03:55:07;98986.18;;;7.86;74.56
60611;BME280;46439;51.164;13.572;2023-03-26T03:57:37;98984.27;;;7.84;74.47
60611;BME280;46439;51.164;13.572;2023-03-26T04:00:08;98983.21;;;7.82;74.51
60611;BME280;46439;51.164;13.572;2023-03-26T04:02:39;98983.48;;;7.80;74.53
60611;BME280;46439;51.164;13.572;2023-03-26T04:05:09;98984.20;;;7.79;74.67
60611;BME280;46439;51.164;13.572;2023-03-26T04:07:39;98981.67;;;7.79;74.72
60611;BME280;46439;51.164;13.572;2023-03-26T04:10:11;98979.90;;;7.79;74.67
60611;BME280;46439;51.164;13.572;2023-03-26T04:12:41;98974.49;;;7.79;74.70
60611;BME280;46439;51.164;13.572;2023-03-26T04:15:11;98974.90;;;7.79;74.72
60611;BME280;46439;51.164;13.572;2023-03-26T04:17:39;98972.54;;;7.79;74.81
60611;BME280;46439;51.164;13.572;2023-03-26T04:20:13;98968.83;;;7.79;74.83
60611;BME280;46439;51.164;13.572;2023-03-26T04:22:43;98969.85;;;7.78;74.90
60611;BME280;46439;51.164;13.572;2023-03-26T04:25:12;98972.07;;;7.77;74.91
60611;BME280;46439;51.164;13.572;2023-03-26T04:27:42;98968.86;;;7.78;74.88
60611;BME280;46439;51.164;13.572;2023-03-26T04:30:14;98969.61;;;7.78;75.05
60611;BME280;46439;51.164;13.572;2023-03-26T04:32:45;98968.00;;;7.78;75.04
60611;BME280;46439;51.164;13.572;2023-03-26T04:35:15;98967.15;;;7.80;75.08
60611;BME280;46439;51.164;13.572;2023-03-26T04:37:44;98967.06;;;7.80;75.19
60611;BME280;46439;51.164;13.572;2023-03-26T04:40:15;98958.86;;;7.79;75.21
60611;BME280;46439;51.164;13.572;2023-03-26T04:42:43;98957.65;;;7.81;75.15
60611;BME280;46439;51.164;13.572;2023-03-26T04:45:17;98961.64;;;7.82;75.32
60611;BME280;46439;51.164;13.572;2023-03-26T04:47:49;98961.71;;;7.84;75.35
60611;BME280;46439;51.164;13.572;2023-03-26T04:50:18;98965.52;;;7.84;75.34
60611;BME280;46439;51.164;13.572;2023-03-26T04:52:46;98965.15;;;7.84;75.30
60611;BME280;46439;51.164;13.572;2023-03-26T04:55:21;98960.61;;;7.84;75.50
60611;BME280;46439;51.164;13.572;2023-03-26T04:57:55;98961.23;;;7.85;75.37
60611;BME280;46439;51.164;13.572;2023-03-26T05:00:24;98962.44;;;7.88;75.59
60611;BME280;46439;51.164;13.572;2023-03-26T05:02:53;98967.49;;;7.90;75.60
60611;BME280;46439;51.164;13.572;2023-03-26T05:05:25;98964.52;;;7.91;75.73
60611;BME280;46439;51.164;13.572;2023-03-26T05:07:55;98964.81;;;7.93;75.76
60611;BME280;46439;51.164;13.572;2023-03-26T05:10:23;98966.14;;;7.97;75.92
60611;BME280;46439;51.164;13.572;2023-03-26T05:12:52;98966.78;;;7.99;75.92
60611;BME280;46439;51.164;13.572;2023-03-26T05:15:21;98967.55;;;8.01;76.02
60611;BME280;46439;51.164;13.572;2023-03-26T05:17:50;98967.80;;;8.03;75.97
60611;BME280;46439;51.164;13.572;2023-03-26T05:20:21;98972.50;;;8.05;76.03
60611;BME280;46439;51.164;13.572;2023-03-26T05:22:50;98977.52;;;8.06;76.07
60611;BME280;46439;51.164;13.572;2023-03-26T05:25:19;98980.69;;;8.06;76.01
60611;BME280;46439;51.164;13.572;2023-03-26T05:27:48;98979.21;;;8.07;75.99
60611;BME280;46439;51.164;13.572;2023-03-26T05:30:18;98979.16;;;8.06;75.94
60611;BME280;46439;51.164;13.572;2023-03-26T05:32:48;98979.05;;;8.07;76.07
60611;BME280;46439;51.164;13.572;2023-03-26T05:35:19;98979.27;;;8.08;76.04
60611;BME280;46439;51.164;13.572;2023-03-26T05:37:48;98982.89;;;8.09;76.09
60611;BME280;46439;51.164;13.572;2023-03-26T05:40:19;98986.00;;;8.13;76.19
60611;BME280;46439;51.164;13.572;2023-03-26T05:42:48;98987.16;;;8.14;76.28
60611;BME280;46439;51.164;13.572;2023-03-26T05:45:18;98989.20;;;8.15;76.29
60611;BME280;46439;51.164;13.572;2023-03-26T05:47:49;98994.02;;;8.15;76.21
60611;BME280;46439;51.164;13.572;2023-03-26T05:50:19;98996.35;;;8.14;76.28
60611;BME280;46439;51.164;13.572;2023-03-26T05:52:47;98998.39;;;8.14;76.15
60611;BME280;46439;51.164;13.572;2023-03-26T05:55:16;98996.34;;;8.14;76.32
60611;BME280;46439;51.164;13.572;2023-03-26T05:57:47;98996.69;;;8.15;76.09
60611;BME280;46439;51.164;13.572;2023-03-26T06:00:17;98993.30;;;8.16;76.18
60611;BME280;46439;51.164;13.572;2023-03-26T06:02:45;98995.62;;;8.18;76.17
60611;BME280;46439;51.164;13.572;2023-03-26T06:05:15;98994.53;;;8.21;76.27
60611;BME280;46439;51.164;13.572;2023-03-26T06:07:43;98993.00;;;8.26;76.46
60611;BME280;46439;51.164;13.572;2023-03-26T06:10:12;98993.80;;;8.32;76.53
60611;BME280;46439;51.164;13.572;2023-03-26T06:12:41;98992.42;;;8.34;76.60
60611;BME280;46439;51.164;13.572;2023-03-26T06:15:11;98994.44;;;8.37;76.53
60611;BME280;46439;51.164;13.572;2023-03-26T06:17:39;98994.05;;;8.38;76.69
60611;BME280;46439;51.164;13.572;2023-03-26T06:20:10;98991.70;;;8.40;76.60
60611;BME280;46439;51.164;13.572;2023-03-26T06:22:39;98987.13;;;8.42;76.74
60611;BME280;46439;51.164;13.572;2023-03-26T06:25:08;98982.58;;;8.44;76.65
60611;BME280;46439;51.164;13.572;2023-03-26T06:27:37;98981.48;;;8.51;76.90
60611;BME280;46439;51.164;13.572;2023-03-26T06:30:07;98981.42;;;8.57;76.91
60611;BME280;46439;51.164;13.572;2023-03-26T06:32:36;98979.84;;;8.62;77.12
60611;BME280;46439;51.164;13.572;2023-03-26T06:35:06;98977.19;;;8.66;77.07
60611;BME280;46439;51.164;13.572;2023-03-26T06:37:34;98977.17;;;8.72;77.12
60611;BME280;46439;51.164;13.572;2023-03-26T06:40:04;98974.12;;;8.78;77.26
60611;BME280;46439;51.164;13.572;2023-03-26T06:42:33;98973.42;;;8.87;77.15
60611;BME280;46439;51.164;13.572;2023-03-26T06:45:01;98976.09;;;8.93;77.34
60611;BME280;46439;51.164;13.572;2023-03-26T06:47:30;98971.79;;;8.98;77.41
60611;BME280;46439;51.164;13.572;2023-03-26T06:49:58;98971.67;;;9.03;77.41
60611;BME280;46439;51.164;13.572;2023-03-26T06:52:27;98968.75;;;9.10;77.37
60611;BME280;46439;51.164;13.572;2023-03-26T06:54:55;98969.48;;;9.12;77.43
60611;BME280;46439;51.164;13.572;2023-03-26T06:57:24;98966.41;;;9.17;77.47
60611;BME280;46439;51.164;13.572;2023-03-26T06:59:53;98968.85;;;9.26;77.50
60611;BME280;46439;51.164;13.572;2023-03-26T07:02:21;98967.84;;;9.34;77.68
60611;BME280;46439;51.164;13.572;2023-03-26T07:04:50;98972.63;;;9.37;77.74
60611;BME280;46439;51.164;13.572;2023-03-26T07:07:18;98967.77;;;9.41;77.50
60611;BME280;46439;51.164;13.572;2023-03-26T07:09:48;98968.73;;;9.47;77.56
60611;BME280;46439;51.164;13.572;2023-03-26T07:12:17;98967.46;;;9.55;77.62
60611;BME280;46439;51.164;13.572;2023-03-26T07:14:45;98970.60;;;9.59;77.88
60611;BME280;46439;51.164;13.572;2023-03-26T07:17:14;98969.39;;;9.58;77.73
60611;BME280;46439;51.164;13.572;2023-03-26T07:19:43;98968.42;;;9.57;77.58
60611;BME280;46439;51.164;13.572;2023-03-26T07:22:18;98962.27;;;9.54;77.47
60611;BME280;46439;51.164;13.572;2023-03-26T07:24:49;98959.86;;;9.53;77.29
60611;BME280;46439;51.164;13.572;2023-03-26T07:27:31;98959.25;;;9.55;77.21
60611;BME280;46439;51.164;13.572;2023-03-26T07:30:07;98959.23;;;9.58;77.46
60611;BME280;46439;51.164;13.572;2023-03-26T07:32:41;98953.30;;;9.63;77.46
60611;BME280;46439;51.164;13.572;2023-03-26T07:35:18;98953.67;;;9.69;77.51
60611;BME280;46439;51.164;13.572;2023-03-26T07:37:55;98948.98;;;9.69;77.51
60611;BME280;46439;51.164;13.572;2023-03-26T07:40:41;98951.98;;;9.71;77.39
60611;BME280;46439;51.164;13.572;2023-03-26T07:43:17;98952.23;;;9.72;77.47
60611;BME280;46439;51.164;13.572;2023-03-26T07:45:49;98952.02;;;9.72;77.32
60611;BME280;46439;51.164;13.572;2023-03-26T07:48:20;98954.73;;;9.74;77.52
60611;BME280;46439;51.164;13.572;2023-03-26T07:50:54;98953.20;;;9.81;77.39
60611;BME280;46439;51.164;13.572;2023-03-26T07:53:24;98953.58;;;9.87;77.64
60611;BME280;46439;51.164;13.572;2023-03-26T07:55:59;98953.64;;;9.92;77.63
60611;BME280;46439;51.164;13.572;2023-03-26T07:58:44;98953.48;;;9.95;77.63
60611;BME280;46439;51.164;13.572;2023-03-26T08:01:21;98946.29;;;9.98;77.47
60611;BME280;46439;51.164;13.572;2023-03-26T08:04:00;98948.77;;;10.03;77.66
60611;BME280;46439;51.164;13.572;2023-03-26T08:06:35;98951.27;;;10.08;77.91
60611;BME280;46439;51.164;13.572;2023-03-26T08:09:11;98952.20;;;10.11;77.85
60611;BME280;46439;51.164;13.572;2023-03-26T08:11:49;98951.66;;;10.11;77.66
60611;BME280;46439;51.164;13.572;2023-03-26T08:14:29;98948.38;;;10.11;77.51
60611;BME280;46439;51.164;13.572;2023-03-26T08:17:03;98946.31;;;10.12;77.54
60611;BME280;46439;51.164;13.572;2023-03-26T08:19:42;98944.74;;;10.15;77.54
60611;BME280;46439;51.164;13.572;2023-03-26T08:22:17;98942.63;;;10.16;77.48
60611;BME280;46439;51.164;13.572;2023-03-26T08:25:13;98944.31;;;10.22;77.58
60611;BME280;46439;51.164;13.572;2023-03-26T08:27:53;98943.54;;;10.24;77.57
60611;BME280;46439;51.164;13.572;2023-03-26T08:30:29;98943.91;;;10.25;77.50
60611;BME280;46439;51.164;13.572;2023-03-26T08:33:01;98941.80;;;10.27;77.52
60611;BME280;46439;51.164;13.572;2023-03-26T08:35:32;98941.35;;;10.32;77.50
60611;BME280;46439;51.164;13.572;2023-03-26T08:38:02;98948.10;;;10.38;77.60
60611;BME280;46439;51.164;13.572;2023-03-26T08:43:44;98949.34;;;10.47;77.66
60611;BME280;46439;51.164;13.572;2023-03-26T08:52:42;98945.90;;;10.52;77.39
60611;BME280;46439;51.164;13.572;2023-03-26T08:55:34;98940.98;;;10.52;77.28
60611;BME280;46439;51.164;13.572;2023-03-26T08:58:42;98936.16;;;10.51;77.29
60611;BME280;46439;51.164;13.572;2023-03-26T09:01:37;98935.77;;;10.54;77.47
60611;BME280;46439;51.164;13.572;2023-03-26T09:04:33;98934.98;;;10.60;77.63
60611;BME280;46439;51.164;13.572;2023-03-26T09:07:32;98933.98;;;10.64;77.57
60611;BME280;46439;51.164;13.572;2023-03-26T09:22:57;98920.08;;;10.96;77.88
60611;BME280;46439;51.164;13.572;2023-03-26T09:25:49;98918.22;;;11.01;77.78
60611;BME280;46439;51.164;13.572;2023-03-26T09:28:47;98919.29;;;11.00;77.60
60611;BME280;46439;51.164;13.572;2023-03-26T09:34:28;98913.17;;;11.05;77.48
60611;BME280;46439;51.164;13.572;2023-03-26T09:37:09;98913.89;;;11.09;77.47
60611;BME280;46439;51.164;13.572;2023-03-26T09:39:52;98907.41;;;11.15;77.43
60611;BME280;46439;51.164;13.572;2023-03-26T09:42:33;98904.77;;;11.19;77.47
60611;BME280;46439;51.164;13.572;2023-03-26T09:45:31;98899.70;;;11.26;77.50
60611;BME280;46439;51.164;13.572;2023-03-26T09:51:25;98893.79;;;11.44;77.63
60611;BME280;46439;51.164;13.572;2023-03-26T09:56:53;98889.93;;;11.58;77.55
60611;BME280;46439;51.164;13.572;2023-03-26T10:02:56;98884.77;;;11.77;77.83
60611;BME280;46439;51.164;13.572;2023-03-26T10:05:38;98885.48;;;11.87;77.83
60611;BME280;46439;51.164;13.572;2023-03-26T10:08:31;98884.40;;;11.97;77.83
60611;BME280;46439;51.164;13.572;2023-03-26T10:11:09;98885.61;;;12.06;77.87
60611;BME280;46439;51.164;13.572;2023-03-26T10:13:52;98882.15;;;12.16;77.82
60611;BME280;46439;51.164;13.572;2023-03-26T10:16:27;98877.76;;;12.21;77.83
60611;BME280;46439;51.164;13.572;2023-03-26T10:19:11;98875.46;;;12.23;77.67
60611;BME280;46439;51.164;13.572;2023-03-26T10:21:53;98867.08;;;12.28;77.54
60611;BME280;46439;51.164;13.572;2023-03-26T10:24:46;98864.64;;;12.36;77.68
60611;BME280;46439;51.164;13.572;2023-03-26T10:27:31;98858.22;;;12.38;77.66
60611;BME280;46439;51.164;13.572;2023-03-26T10:30:36;98847.70;;;12.44;77.42
60611;BME280;46439;51.164;13.572;2023-03-26T10:33:21;98839.96;;;12.55;77.67
60611;BME280;46439;51.164;13.572;2023-03-26T10:36:05;98836.46;;;12.61;77.83
60611;BME280;46439;51.164;13.572;2023-03-26T10:38:49;98828.22;;;12.59;77.50
60611;BME280;46439;51.164;13.572;2023-03-26T10:41:27;98820.75;;;12.62;77.20
60611;BME280;46439;51.164;13.572;2023-03-26T10:44:13;98818.27;;;12.72;77.42
60611;BME280;46439;51.164;13.572;2023-03-26T10:47:09;98811.73;;;12.76;77.25
60611;BME280;46439;51.164;13.572;2023-03-26T10:52:47;98805.58;;;12.80;76.91
60611;BME280;46439;51.164;13.572;2023-03-26T10:55:23;98800.25;;;12.78;76.88
60611;BME280;46439;51.164;13.572;2023-03-26T10:57:56;98800.03;;;12.79;76.86
60611;BME280;46439;51.164;13.572;2023-03-26T11:00:28;98795.04;;;12.79;76.76
60611;BME280;46439;51.164;13.572;2023-03-26T11:03:15;98788.21;;;12.87;76.91
60611;BME280;46439;51.164;13.572;2023-03-26T11:05:50;98784.98;;;12.95;76.91
60611;BME280;46439;51.164;13.572;2023-03-26T11:08:28;98782.12;;;13.02;76.78
60611;BME280;46439;51.164;13.572;2023-03-26T11:11:04;98776.20;;;13.10;76.92
60611;BME280;46439;51.164;13.572;2023-03-26T11:13:47;98778.12;;;13.15;76.77
60611;BME280;46439;51.164;13.572;2023-03-26T11:16:27;98777.11;;;13.14;76.59
60611;BME280;46439;51.164;13.572;2023-03-26T11:19:00;98773.19;;;13.10;76.29
60611;BME280;46439;51.164;13.572;2023-03-26T11:21:35;98775.65;;;13.07;76.08
60611;BME280;46439;51.164;13.572;2023-03-26T11:24:21;98772.04;;;13.04;75.92
60611;BME280;46439;51.164;13.572;2023-03-26T11:26:55;98767.73;;;13.01;75.90
60611;BME280;46439;51.164;13.572;2023-03-26T11:29:38;98766.88;;;13.09;75.96
60611;BME280;46439;51.164;13.572;2023-03-26T11:32:13;98766.20;;;13.21;76.22
60611;BME280;46439;51.164;13.572;2023-03-26T11:34:47;98765.02;;;13.26;76.23
60611;BME280;46439;51.164;13.572;2023-03-26T11:37:26;98759.58;;;13.31;76.12
60611;BME280;46439;51.164;13.572;2023-03-26T11:39:58;98758.56;;;13.40;76.12
60611;BME280;46439;51.164;13.572;2023-03-26T11:42:30;98752.22;;;13.51;76.12
60611;BME280;46439;51.164;13.572;2023-03-26T11:45:02;98750.11;;;13.59;76.17
60611;BME280;46439;51.164;13.572;2023-03-26T11:47:34;98749.38;;;13.64;76.03
60611;BME280;46439;51.164;13.572;2023-03-26T11:50:06;98747.00;;;13.71;75.91
60611;BME280;46439;51.164;13.572;2023-03-26T11:52:38;98744.55;;;13.70;75.75
60611;BME280;46439;51.164;13.572;2023-03-26T11:55:10;98742.11;;;13.72;75.72
60611;BME280;46439;51.164;13.572;2023-03-26T11:57:41;98741.09;;;13.73;75.55
60611;BME280;46439;51.164;13.572;2023-03-26T12:00:16;98740.99;;;13.67;75.17
60611;BME280;46439;51.164;13.572;2023-03-26T12:02:47;98739.55;;;13.66;75.06
60611;BME280;46439;51.164;13.572;2023-03-26T12:05:19;98741.17;;;13.66;75.02
60611;BME280;46439;51.164;13.572;2023-03-26T12:07:51;98736.83;;;13.70;75.04
60611;BME280;46439;51.164;13.572;2023-03-26T12:10:29;98734.27;;;13.69;75.07
60611;BME280;46439;51.164;13.572;2023-03-26T12:13:02;98731.61;;;13.67;74.80
60611;BME280;46439;51.164;13.572;2023-03-26T12:15:34;98730.97;;;13.61;74.57
60611;BME280;46439;51.164;13.572;2023-03-26T12:18:24;98734.08;;;13.54;74.39
60611;BME280;46439;51.164;13.572;2023-03-26T12:21:03;98734.91;;;13.47;74.06
60611;BME280;46439;51.164;13.572;2023-03-26T12:23:50;98739.88;;;13.39;73.99
60611;BME280;46439;51.164;13.572;2023-03-26T12:26:27;98742.76;;;13.33;73.87
60611;BME280;46439;51.164;13.572;2023-03-26T12:29:06;98736.86;;;13.24;73.65
60611;BME280;46439;51.164;13.572;2023-03-26T12:31:53;98731.10;;;13.21;73.61
60611;BME280;46439;51.164;13.572;2023-03-26T12:34:27;98724.56;;;13.29;73.68
60611;BME280;46439;51.164;13.572;2023-03-26T12:36:58;98721.89;;;13.39;73.94
60611;BME280;46439;51.164;13.572;2023-03-26T12:39:36;98721.55;;;13.41;73.74
60611;BME280;46439;51.164;13.572;2023-03-26T12:42:25;98715.91;;;13.46;73.74
60611;BME280;46439;51.164;13.572;2023-03-26T12:44:56;98721.03;;;13.59;73.97
60611;BME280;46439;51.164;13.572;2023-03-26T12:47:28;98720.89;;;13.70;74.08
60611;BME280;46439;51.164;13.572;2023-03-26T12:49:56;98721.58;;;13.75;74.04
60611;BME280;46439;51.164;13.572;2023-03-26T12:52:58;98723.94;;;13.80;73.98
60611;BME280;46439;51.164;13.572;2023-03-26T12:55:44;98720.29;;;13.79;73.88
60611;BME280;46439;51.164;13.572;2023-03-26T12:58:36;98720.33;;;13.75;73.52
60611;BME280;46439;51.164;13.572;2023-03-26T13:01:17;98718.45;;;13.72;73.37
60611;BME280;46439;51.164;13.572;2023-03-26T13:04:06;98721.52;;;13.69;73.18
60611;BME280;46439;51.164;13.572;2023-03-26T13:06:43;98715.75;;;13.74;73.38
60611;BME280;46439;51.164;13.572;2023-03-26T13:09:35;98712.86;;;13.77;73.36
60611;BME280;46439;51.164;13.572;2023-03-26T13:12:16;98709.23;;;13.86;73.55
60611;BME280;46439;51.164;13.572;2023-03-26T13:14:59;98703.80;;;13.87;73.41
60611;BME280;46439;51.164;13.572;2023-03-26T13:17:35;98700.72;;;13.90;73.33
60611;BME280;46439;51.164;13.572;2023-03-26T13:20:12;98701.07;;;13.91;73.28
60611;BME280;46439;51.164;13.572;2023-03-26T13:22:51;98698.94;;;13.89;73.07
60611;BME280;46439;51.164;13.572;2023-03-26T13:25:33;98696.16;;;13.86;73.01
60611;BME280;46439;51.164;13.572;2023-03-26T13:28:20;98692.54;;;13.84;72.77
60611;BME280;46439;51.164;13.572;2023-03-26T13:30:59;98686.42;;;13.79;72.61
60611;BME280;46439;51.164;13.572;2023-03-26T13:33:51;98683.81;;;13.78;72.54
60611;BME280;46439;51.164;13.572;2023-03-26T13:36:26;98679.02;;;13.75;72.43
60611;BME280;46439;51.164;13.572;2023-03-26T13:39:05;98676.43;;;13.68;72.26
60611;BME280;46439;51.164;13.572;2023-03-26T13:41:53;98672.46;;;13.70;72.25
60611;BME280;46439;51.164;13.572;2023-03-26T13:44:34;98672.19;;;13.75;72.37
60611;BME280;46439;51.164;13.572;2023-03-26T13:47:07;98666.95;;;13.73;72.21
60611;BME280;46439;51.164;13.572;2023-03-26T13:49:42;98665.66;;;13.73;72.04
60611;BME280;46439;51.164;13.572;2023-03-26T13:52:16;98666.60;;;13.68;71.78
60611;BME280;46439;51.164;13.572;2023-03-26T13:54:50;98664.24;;;13.67;71.66
60611;BME280;46439;51.164;13.572;2023-03-26T13:57:26;98661.06;;;13.74;71.87
60611;BME280;46439;51.164;13.572;2023-03-26T14:00:03;98662.42;;;13.77;71.99
60611;BME280;46439;51.164;13.572;2023-03-26T14:02:37;98662.17;;;13.85;72.17
60611;BME280;46439;51.164;13.572;2023-03-26T14:05:12;98663.50;;;13.92;72.29
60611;BME280;46439;51.164;13.572;2023-03-26T14:07:45;98660.48;;;13.95;72.16
60611;BME280;46439;51.164;13.572;2023-03-26T14:10:20;98661.73;;;13.93;71.93
60611;BME280;46439;51.164;13.572;2023-03-26T14:12:56;98660.71;;;13.91;71.71